M I D A S
Marine Information and Data Acquisition System
Tripno 2092 of the Zeeleeuw from 2011-01-27 07:49:23 to 2011-01-27 16:19:56
Back to CruiseResearch ActivitiesStationsMapUnderway DataData graphs

EquipmentUnitsComment
TimeDGPSUTC
LatitudeDGPSDM.mWGS84
LongitudeDGPSDM.mWGS84
HeadingGyrodeg 
SOGDGPSknotsSpeed over ground
COGDGPSdegCourse over ground
DepthEcho soundermeters200 kHz
Missing or incorrect values are displayed as -999
Navigation data collected by the RV Zeeleeuw from 2011-01-27 07:50:34 to 2011-01-27 16:27:18
Time Latitude Longitude Heading SOG COG Depth
2011-01-27 07:51:39 51°13.682 2°55.869 110.1 5.2 292 -999
2011-01-27 07:52:39 51°13.713 2°55.749 120.3 4.6 299 -999
2011-01-27 07:53:39 51°13.774 2°55.666 152.7 1 323 -999
2011-01-27 07:54:39 51°13.871 2°55.624 175.7 5.8 355 -999
2011-01-27 07:55:38 51°13.946 2°55.638 202.9 3.4 18 12.2
2011-01-27 07:56:36 51°13.964 2°55.646 243.2 0.6 286 12.2
2011-01-27 07:57:36 51°13.987 2°55.566 305.8 6.2 309 11.9
2011-01-27 07:58:36 51°14.102 2°55.442 331.4 9.5 332 11.5
2011-01-27 07:59:38 51°14.253 2°55.302 327.1 10.6 327 -999
2011-01-27 08:00:38 51°14.402 2°55.143 324 11 326 11.6
2011-01-27 08:01:37 51°14.56 2°54.969 323.5 12.5 324 12.5
2011-01-27 08:02:37 51°14.736 2°54.776 326.5 12.8 328 -999
2011-01-27 08:03:39 51°14.92 2°54.571 323.5 13 325 -999
2011-01-27 08:04:37 51°15.091 2°54.377 320.6 13.1 325 12.2
2011-01-27 08:05:36 51°15.256 2°54.165 318.6 12.9 321 12.8
2011-01-27 08:06:35 51°15.424 2°53.956 321.6 13.3 323 13.1
2011-01-27 08:07:36 51°15.6 2°53.738 320.4 13 321 13.1
2011-01-27 08:08:35 51°15.771 2°53.528 323.9 13.3 328 12.8
2011-01-27 08:09:36 51°15.97 2°53.384 334.2 13 335 13
2011-01-27 08:10:35 51°16.163 2°53.234 330.5 13.1 333 13.3
2011-01-27 08:11:35 51°16.359 2°53.079 333 13.2 334 13.4
2011-01-27 08:12:36 51°16.561 2°52.932 334.7 13.3 335 13
2011-01-27 08:13:35 51°16.755 2°52.79 334.5 13.3 336 11.5
2011-01-27 08:14:36 51°16.96 2°52.642 334.3 13.4 337 11.4
2011-01-27 08:15:36 51°17.159 2°52.496 332.8 13.1 335 11.2
2011-01-27 08:16:36 51°17.359 2°52.35 334 13.2 335 11.8
2011-01-27 08:17:35 51°17.557 2°52.202 332.7 13.5 334 12.6
2011-01-27 08:18:36 51°17.761 2°52.047 333.6 13.1 334 11.9
2011-01-27 08:19:36 51°17.968 2°51.948 348.5 12.7 350 11.1
2011-01-27 08:20:36 51°18.184 2°51.887 349.9 13.3 350 12
2011-01-27 08:21:36 51°18.396 2°51.804 344.4 13.2 345 13.7
2011-01-27 08:22:36 51°18.605 2°51.713 344.1 13.2 344 14.5
2011-01-27 08:23:35 51°18.813 2°51.623 344.5 13 344 14.6
2011-01-27 08:24:36 51°19.027 2°51.528 344.7 12.8 344 16.2
2011-01-27 08:25:36 51°19.231 2°51.393 335.1 13.6 336 16.4
2011-01-27 08:26:36 51°19.434 2°51.247 333.6 13 335 16.6
2011-01-27 08:27:36 51°19.639 2°51.103 335.1 13.3 336 14.6
2011-01-27 08:28:36 51°19.842 2°50.955 334.9 13.5 336 13.7
2011-01-27 08:29:36 51°20.042 2°50.81 335.5 13.1 336 14
2011-01-27 08:30:35 51°20.243 2°50.675 336.6 13.4 338 16.4
2011-01-27 08:31:35 51°20.448 2°50.532 336.1 13.5 335 18.8
2011-01-27 08:32:36 51°20.649 2°50.382 335.5 12.9 335 21.1
2011-01-27 08:33:35 51°20.844 2°50.236 335.4 13.3 335 24.3
2011-01-27 08:34:35 51°21.042 2°50.089 335.1 12.9 335 24.1
2011-01-27 08:35:35 51°21.243 2°49.937 335.1 13.5 334 24.2
2011-01-27 08:36:35 51°21.447 2°49.788 335.5 13.5 337 23.4
2011-01-27 08:37:36 51°21.655 2°49.641 336.4 13 337 24.5
2011-01-27 08:38:36 51°21.859 2°49.497 335 13.5 336 24.5
2011-01-27 08:39:36 51°22.065 2°49.352 334.6 13.7 336 24.1
2011-01-27 08:40:35 51°22.264 2°49.206 335.1 13.4 336 23.3
2011-01-27 08:41:35 51°22.467 2°49.061 334.3 13.2 334 20.9
2011-01-27 08:42:36 51°22.672 2°48.91 335.8 13.4 333 16.6
2011-01-27 08:43:35 51°22.873 2°48.765 334.3 13.5 334 16.2
2011-01-27 08:44:35 51°23.074 2°48.617 332.5 13.3 334 18.1
2011-01-27 08:45:35 51°23.277 2°48.466 334.2 13.6 336 19.5
2011-01-27 08:46:35 51°23.48 2°48.322 336.5 13.4 337 23.2
2011-01-27 08:47:36 51°23.684 2°48.179 336.8 13.1 338 23.3
2011-01-27 08:48:36 51°23.886 2°48.04 334.3 13.3 338 21.7
2011-01-27 08:49:36 51°24.086 2°47.895 334.3 13.3 338 24.7
2011-01-27 08:50:35 51°24.285 2°47.759 336.4 13.2 338 25.9
2011-01-27 08:51:36 51°24.49 2°47.613 333.8 13.3 337 29.1
2011-01-27 08:52:36 51°24.697 2°47.471 334.6 13.7 337 31.5
2011-01-27 08:53:36 51°24.898 2°47.331 334.3 13.3 335 32.7
2011-01-27 08:54:35 51°25.103 2°47.195 335.3 13.9 337 25.8
2011-01-27 08:55:36 51°25.316 2°47.053 336.1 13.3 335 25.7
2011-01-27 08:56:36 51°25.522 2°46.913 334.5 13.4 337 26.3
2011-01-27 08:57:35 51°25.728 2°46.772 334.7 13.5 336 24.1
2011-01-27 08:58:36 51°25.937 2°46.619 333.1 13.6 335 23.5
2011-01-27 08:59:35 51°26.14 2°46.473 334 13.4 334 25.9
2011-01-27 09:00:36 51°26.347 2°46.324 335 13.1 333 27
2011-01-27 09:01:36 51°26.55 2°46.187 336.9 13.5 339 28.7
2011-01-27 09:02:36 51°26.754 2°46.055 338 13.5 341 30.9
2011-01-27 09:03:36 51°26.962 2°45.926 338.5 13.5 340 30.5
2011-01-27 09:04:36 51°27.172 2°45.802 338.5 13.3 339 29.9
2011-01-27 09:05:35 51°27.375 2°45.679 338.5 13.7 340 29.4
2011-01-27 09:06:36 51°27.589 2°45.55 338.7 13.5 341 28.1
2011-01-27 09:07:36 51°27.795 2°45.423 338.6 13.5 340 27.3
2011-01-27 09:08:36 51°28.003 2°45.297 338.3 13.3 338 28
2011-01-27 09:09:36 51°28.212 2°45.169 338.9 13.6 338 28.2
2011-01-27 09:10:36 51°28.421 2°45.045 339.3 13.3 341 28.8
2011-01-27 09:11:35 51°28.629 2°44.924 339.4 13.7 338 26.7
2011-01-27 09:12:36 51°28.843 2°44.802 338.1 13.5 341 27.6
2011-01-27 09:13:35 51°29.049 2°44.677 338.8 13.7 341 30.2
2011-01-27 09:14:35 51°29.26 2°44.55 339.7 13.7 339 27.2
2011-01-27 09:15:36 51°29.478 2°44.424 338.4 13.6 338 31.7
2011-01-27 09:16:36 51°29.692 2°44.316 348.5 13.7 351 33.4
2011-01-27 09:17:36 51°29.915 2°44.294 359.3 13.7 -999 31.8
2011-01-27 09:18:36 51°30.139 2°44.3 1.3 13.7 3 32.9
2011-01-27 09:19:36 51°30.362 2°44.307 0.6 13.5 -999 33.3
2011-01-27 09:20:36 51°30.588 2°44.315 2.3 13.8 1 33
2011-01-27 09:21:36 51°30.816 2°44.319 1.4 13.7 1 33.6
2011-01-27 09:22:35 51°31.03 2°44.409 24.3 13.4 22 33.1
2011-01-27 09:23:36 51°31.217 2°44.497 16.8 8.4 13 -999
2011-01-27 09:24:36 51°31.323 2°44.536 16.1 5.3 11 29.9
2011-01-27 09:25:35 51°31.404 2°44.56 16.2 4.8 10 32.7
2011-01-27 09:26:35 51°31.495 2°44.588 16.9 6.4 13 34
2011-01-27 09:27:36 51°31.606 2°44.625 15.2 7.1 11 31.4
2011-01-27 09:28:35 51°31.73 2°44.671 16.7 7.9 14 36.9
2011-01-27 09:29:36 51°31.865 2°44.718 14.9 8.2 10 35.4
2011-01-27 09:30:36 51°31.986 2°44.751 15.3 6.6 12 35.5
2011-01-27 09:31:36 51°32.101 2°44.79 15.1 7.1 12 34.6
2011-01-27 09:32:36 51°32.215 2°44.827 15.4 7.2 10 35.8
2011-01-27 09:33:36 51°32.331 2°44.87 16.2 6.9 12 35.6
2011-01-27 09:34:35 51°32.443 2°44.912 16 7 10 34.8
2011-01-27 09:35:36 51°32.563 2°44.943 13.9 7.3 10 33.1
2011-01-27 09:36:35 51°32.682 2°44.987 17.1 7.7 14 32.5
2011-01-27 09:37:35 51°32.807 2°45.028 14.2 7.4 11 31.1
2011-01-27 09:38:35 51°32.924 2°45.067 17.4 7 15 30.6
2011-01-27 09:39:36 51°33.041 2°45.125 22.1 7.1 18 31.9
2011-01-27 09:40:36 51°33.154 2°45.182 22.2 7.1 18 30.5
2011-01-27 09:41:36 51°33.266 2°45.232 18.9 6.8 15 30.4
2011-01-27 09:42:36 51°33.375 2°45.279 16.9 7 12 29
2011-01-27 09:43:36 51°33.489 2°45.319 18.9 6.9 12 30.3
2011-01-27 09:44:35 51°33.596 2°45.367 21.8 7 18 30.9
2011-01-27 09:45:35 51°33.707 2°45.415 21 7.1 16 30.6
2011-01-27 09:46:35 51°33.814 2°45.491 29.9 7.4 23 30.1
2011-01-27 09:47:36 51°33.929 2°45.561 24.3 7.4 18 30
2011-01-27 09:48:36 51°34.042 2°45.637 28 7.1 22 31.2
2011-01-27 09:49:35 51°34.156 2°45.707 24.8 7.6 21 31.9
2011-01-27 09:50:35 51°34.271 2°45.778 25.2 7.1 19 31.5
2011-01-27 09:51:35 51°34.38 2°45.842 27.4 7 21 32.1
2011-01-27 09:52:35 51°34.485 2°45.919 31.2 6.9 26 32.1
2011-01-27 09:53:35 51°34.59 2°46.001 31.3 7 27 31
2011-01-27 09:54:35 51°34.695 2°46.081 29.2 7.1 25 31.8
2011-01-27 09:55:35 51°34.8 2°46.17 35.5 7.1 30 33.2
2011-01-27 09:56:36 51°34.905 2°46.271 36.8 7 30 32.1
2011-01-27 09:57:36 51°35.001 2°46.357 33.2 6.9 28 33.5
2011-01-27 09:58:35 51°35.109 2°46.438 30.7 7.3 26 32.3
2011-01-27 09:59:35 51°35.222 2°46.519 28.4 7.3 22 32.2
2011-01-27 10:00:35 51°35.33 2°46.597 30.2 7.2 23 33.2
2011-01-27 10:01:35 51°35.439 2°46.682 30.9 7.5 25 33.8
2011-01-27 10:02:35 51°35.544 2°46.768 32 6.9 26 34.5
2011-01-27 10:03:35 51°35.653 2°46.846 30.2 7.3 25 33.6
2011-01-27 10:04:35 51°35.767 2°46.932 30.6 7.5 25 34.2
2011-01-27 10:05:35 51°35.878 2°47.014 29.1 7.2 21 34
2011-01-27 10:06:35 51°35.991 2°47.093 30.6 7.5 25 34.3
2011-01-27 10:07:35 51°36.104 2°47.176 30.5 7.4 23 35.5
2011-01-27 10:08:35 51°36.219 2°47.258 30.6 7.7 26 34.7
2011-01-27 10:09:35 51°36.335 2°47.344 28.3 7.5 22 35.7
2011-01-27 10:10:35 51°36.447 2°47.426 31 7.3 25 36.7
2011-01-27 10:11:35 51°36.556 2°47.51 30.5 7.5 24 36.3
2011-01-27 10:12:35 51°36.668 2°47.595 32.7 7.7 26 35.3
2011-01-27 10:13:35 51°36.781 2°47.673 28.9 7.4 24 36.8
2011-01-27 10:14:35 51°36.892 2°47.756 31.3 7.4 27 36.5
2011-01-27 10:15:35 51°37.003 2°47.839 30.8 7 24 35.7
2011-01-27 10:16:35 51°37.118 2°47.915 21.8 8.3 14 35.8
2011-01-27 10:17:35 51°37.264 2°47.905 354.7 8.6 349 35
2011-01-27 10:18:35 51°37.392 2°47.869 354 7.6 349 30.3
2011-01-27 10:19:35 51°37.514 2°47.831 353.6 7.6 349 27.1
2011-01-27 10:20:36 51°37.625 2°47.746 322.3 7.4 319 24.5
2011-01-27 10:21:36 51°37.703 2°47.568 300.6 8.7 303 17.7
2011-01-27 10:22:35 51°37.779 2°47.362 300 9.3 302 21.4
2011-01-27 10:23:36 51°37.857 2°47.147 299 9.1 299 22.2
2011-01-27 10:24:36 51°37.932 2°46.94 301.3 9.1 302 26.8
2011-01-27 10:25:35 51°38.007 2°46.736 300.6 9 300 29.4
2011-01-27 10:26:36 51°38.053 2°46.512 273.9 8.3 268 31.6
2011-01-27 10:27:36 51°38.005 2°46.33 222.9 7.5 232 32.7
2011-01-27 10:28:36 51°37.913 2°46.192 214.9 7.6 223 34
2011-01-27 10:29:36 51°37.82 2°46.054 218.5 7.7 226 35
2011-01-27 10:30:36 51°37.727 2°45.913 213.6 7.7 223 34.5
2011-01-27 10:31:36 51°37.62 2°45.81 201.9 7.5 211 33.9
2011-01-27 10:32:35 51°37.513 2°45.712 202.2 7.5 213 35.5
2011-01-27 10:33:36 51°37.401 2°45.614 203.3 7.6 208 36.5
2011-01-27 10:34:36 51°37.293 2°45.521 198.1 7.4 203 33.7
2011-01-27 10:35:35 51°37.183 2°45.435 199.8 7.6 203 35.3
2011-01-27 10:36:36 51°37.068 2°45.346 200.2 7.6 211 36.9
2011-01-27 10:37:36 51°36.956 2°45.256 198.6 7.5 203 35.7
2011-01-27 10:38:36 51°36.844 2°45.166 201.2 7.4 205 35.7
2011-01-27 10:39:36 51°36.731 2°45.076 200.5 7.4 205 36.3
2011-01-27 10:40:36 51°36.616 2°44.998 191 7.5 202 36.1
2011-01-27 10:41:35 51°36.502 2°44.939 188.4 7.5 199 37
2011-01-27 10:42:36 51°36.382 2°44.883 188.8 7.3 196 37.3
2011-01-27 10:43:35 51°36.265 2°44.825 189.5 7.5 195 34.7
2011-01-27 10:44:36 51°36.142 2°44.762 191.1 7.5 197 36.9
2011-01-27 10:45:36 51°36.023 2°44.702 188.2 7.5 197 37.4
2011-01-27 10:46:36 51°35.902 2°44.643 190.1 7.6 198 34
2011-01-27 10:47:35 51°35.784 2°44.581 190 7.6 197 35.7
2011-01-27 10:48:35 51°35.663 2°44.518 190.4 7.9 201 35.6
2011-01-27 10:49:36 51°35.541 2°44.451 189.7 7.6 196 35.1
2011-01-27 10:50:35 51°35.423 2°44.391 190.2 7.7 200 33.1
2011-01-27 10:51:36 51°35.3 2°44.326 191.1 7.6 197 34.4
2011-01-27 10:52:35 51°35.18 2°44.265 190.3 7.8 200 34.3
2011-01-27 10:53:36 51°35.058 2°44.2 190.1 7.5 198 34.5
2011-01-27 10:54:35 51°34.94 2°44.138 190.1 7.6 197 33.6
2011-01-27 10:55:36 51°34.819 2°44.078 188.6 7.5 199 33.7
2011-01-27 10:56:36 51°34.699 2°44.017 189.7 7.5 199 33.4
2011-01-27 10:57:36 51°34.581 2°43.951 192.4 7.5 198 32
2011-01-27 10:58:36 51°34.464 2°43.884 189.1 7.3 198 33
2011-01-27 10:59:36 51°34.349 2°43.83 187.6 7.2 197 31.6
2011-01-27 11:00:35 51°34.24 2°43.779 189.9 7 197 31.4
2011-01-27 11:01:35 51°34.13 2°43.722 190.9 7.1 198 31.2
2011-01-27 11:02:35 51°34.016 2°43.668 189.8 7.2 197 31.4
2011-01-27 11:03:35 51°33.904 2°43.616 190.4 6.9 196 30.7
2011-01-27 11:04:35 51°33.791 2°43.553 196.1 7.3 199 31.5
2011-01-27 11:05:36 51°33.677 2°43.476 196.3 7.3 203 31.5
2011-01-27 11:06:35 51°33.567 2°43.402 195.6 7.2 203 30.8
2011-01-27 11:07:36 51°33.463 2°43.302 212.6 7.3 219 30.9
2011-01-27 11:08:35 51°33.382 2°43.156 228.6 7.6 233 31.2
2011-01-27 11:09:36 51°33.315 2°42.985 232.5 7.4 239 32.7
2011-01-27 11:10:35 51°33.251 2°42.823 233.7 7.3 240 32.5
2011-01-27 11:11:36 51°33.187 2°42.656 233.8 7.4 240 32.5
2011-01-27 11:12:35 51°33.126 2°42.491 234.4 7.3 240 30.9
2011-01-27 11:13:36 51°33.066 2°42.318 236 7.3 242 34
2011-01-27 11:14:36 51°33.01 2°42.144 238.9 7.4 245 31.3
2011-01-27 11:15:36 51°32.954 2°41.968 238 7.5 243 32
2011-01-27 11:16:35 51°32.897 2°41.794 236.7 7.5 243 36.7
2011-01-27 11:17:36 51°32.839 2°41.614 238.7 7.5 242 36.3
2011-01-27 11:18:36 51°32.783 2°41.434 238.4 7.5 244 37.2
2011-01-27 11:19:35 51°32.749 2°41.247 262.5 7.4 266 35
2011-01-27 11:20:36 51°32.754 2°41.046 279.5 7.3 281 36.5
2011-01-27 11:21:35 51°32.801 2°40.88 309 6.8 309 38
2011-01-27 11:22:35 51°32.898 2°40.788 350 6.8 349 35.1
2011-01-27 11:23:36 51°33.012 2°40.794 10 7 4 39
2011-01-27 11:24:35 51°33.121 2°40.809 15.9 6.3 10 35.3
2011-01-27 11:25:36 51°33.232 2°40.867 24.6 6.6 21 38.1
2011-01-27 11:26:35 51°33.338 2°40.928 22.7 7.4 19 37.3
2011-01-27 11:27:35 51°33.456 2°40.986 20.4 7.5 16 39.1
2011-01-27 11:28:35 51°33.57 2°41.038 21.5 6.9 17 39.2
2011-01-27 11:29:35 51°33.67 2°41.086 21.7 5.4 14 39
2011-01-27 11:30:35 51°33.763 2°41.13 21.5 6.2 16 39.1
2011-01-27 11:31:35 51°33.862 2°41.178 23.3 6.4 19 39.4
2011-01-27 11:32:35 51°33.965 2°41.225 20.2 6.4 16 39.6
2011-01-27 11:33:35 51°34.071 2°41.274 21.3 6.7 16 41
2011-01-27 11:34:35 51°34.176 2°41.323 20.9 6.7 16 39.5
2011-01-27 11:35:35 51°34.283 2°41.368 20.5 6.4 15 38.9
2011-01-27 11:36:35 51°34.389 2°41.415 21.9 6.8 16 38.2
2011-01-27 11:37:35 51°34.492 2°41.466 23.1 6.3 18 39.6
2011-01-27 11:38:35 51°34.594 2°41.509 21.9 6.5 17 39.6
2011-01-27 11:39:35 51°34.698 2°41.559 21.9 6.3 17 39.2
2011-01-27 11:40:35 51°34.792 2°41.6 19.8 5.7 13 40
2011-01-27 11:41:35 51°34.89 2°41.642 20.1 6.2 15 41
2011-01-27 11:42:35 51°34.991 2°41.685 21.2 6 14 38.9
2011-01-27 11:43:36 51°35.091 2°41.722 21.8 6.3 13 39.1
2011-01-27 11:44:35 51°35.195 2°41.762 20.3 6.7 12 39.1
2011-01-27 11:45:35 51°35.296 2°41.802 23.3 6.1 18 38.7
2011-01-27 11:46:35 51°35.396 2°41.844 21.5 6.1 14 40.9
2011-01-27 11:47:35 51°35.5 2°41.886 21.6 6.7 14 38.7
2011-01-27 11:48:35 51°35.597 2°41.922 19.6 5.5 10 41.1
2011-01-27 11:49:35 51°35.69 2°41.96 20.8 5.6 16 40.7
2011-01-27 11:50:35 51°35.788 2°42.001 21.1 6.2 15 40.1
2011-01-27 11:51:35 51°35.888 2°42.038 20.5 5.8 13 39.6
2011-01-27 11:52:35 51°35.983 2°42.075 21.5 5.6 11 39.1
2011-01-27 11:53:35 51°36.074 2°42.109 20.8 4.9 12 39
2011-01-27 11:54:36 51°36.17 2°42.146 21.6 6.2 14 38.2
2011-01-27 11:55:35 51°36.264 2°42.184 22.2 5.9 15 37.6
2011-01-27 11:56:35 51°36.36 2°42.222 21.4 5.9 13 37.2
2011-01-27 11:57:35 51°36.454 2°42.26 21.5 5.7 13 36.7
2011-01-27 11:58:35 51°36.545 2°42.298 23.6 5.4 15 36.6
2011-01-27 11:59:35 51°36.638 2°42.337 21.2 6.1 16 37
2011-01-27 12:00:35 51°36.736 2°42.374 19.1 5.8 10 36.7
2011-01-27 12:01:35 51°36.832 2°42.412 21.3 5.9 16 37.2
2011-01-27 12:02:35 51°36.91 2°42.437 21.2 4.9 14 36.6
2011-01-27 12:03:35 51°36.999 2°42.473 21.1 6 15 37.4
2011-01-27 12:04:35 51°37.094 2°42.519 24.6 5.9 20 35.5
2011-01-27 12:05:35 51°37.185 2°42.571 24 5.6 17 36.6
2011-01-27 12:06:35 51°37.277 2°42.619 23.7 5.6 15 36.3
2011-01-27 12:07:35 51°37.367 2°42.667 25.2 5.9 20 35.6
2011-01-27 12:08:35 51°37.457 2°42.713 24 5.9 17 35.9
2011-01-27 12:09:35 51°37.549 2°42.763 24.8 5.8 19 35.8
2011-01-27 12:10:35 51°37.637 2°42.808 24.3 5.6 17 35.9
2011-01-27 12:11:35 51°37.731 2°42.851 23.3 6.1 15 36.1
2011-01-27 12:12:35 51°37.824 2°42.894 24 5.8 17 37.3
2011-01-27 12:13:35 51°37.918 2°42.938 24.4 6.1 17 35.9
2011-01-27 12:14:35 51°38.01 2°42.981 23.2 5.7 16 36.7
2011-01-27 12:15:35 51°38.104 2°43.029 25.5 6 20 35.9
2011-01-27 12:16:35 51°38.198 2°43.076 24.6 5.9 16 35
2011-01-27 12:17:35 51°38.291 2°43.122 23.3 5.8 16 35.7
2011-01-27 12:18:35 51°38.382 2°43.168 24.9 5.5 17 37.1
2011-01-27 12:19:35 51°38.463 2°43.201 23.9 5.6 18 36.2
2011-01-27 12:20:35 51°38.562 2°43.248 23.1 5.9 15 36.1
2011-01-27 12:21:35 51°38.664 2°43.305 24.8 7.3 19 36.2
2011-01-27 12:22:37 51°38.776 2°43.358 24.6 6.9 18 36.8
2011-01-27 12:23:35 51°38.876 2°43.409 24.7 6.2 18 37
2011-01-27 12:24:35 51°38.981 2°43.47 25.5 6.6 18 36.9
2011-01-27 12:25:36 51°39.093 2°43.527 23.1 6.6 16 36.7
2011-01-27 12:26:35 51°39.196 2°43.581 23.9 6.7 18 35.6
2011-01-27 12:27:35 51°39.307 2°43.638 24 7.1 19 36.7
2011-01-27 12:28:35 51°39.422 2°43.702 24.7 7.1 17 35.1
2011-01-27 12:29:35 51°39.529 2°43.757 24.3 6.5 17 36.2
2011-01-27 12:30:35 51°39.639 2°43.818 24 6.9 16 35
2011-01-27 12:31:35 51°39.75 2°43.877 24.9 6.9 20 36.6
2011-01-27 12:32:35 51°39.864 2°43.936 24 7.2 18 35.9
2011-01-27 12:33:36 51°39.977 2°43.998 24 6.2 16 -999
2011-01-27 12:34:35 51°40.078 2°44.054 24.8 6 16 35.7
2011-01-27 12:35:35 51°40.186 2°44.104 23.7 7.1 17 35.9
2011-01-27 12:36:35 51°40.29 2°44.163 24.8 6.8 19 34.9
2011-01-27 12:37:35 51°40.4 2°44.225 24.8 6.7 21 36
2011-01-27 12:38:36 51°40.503 2°44.283 24.6 5.6 16 37.5
2011-01-27 12:39:35 51°40.599 2°44.331 25 6.6 19 36
2011-01-27 12:40:35 51°40.692 2°44.382 24.5 6.3 18 37.4
2011-01-27 12:41:35 51°40.795 2°44.43 23.3 6.7 17 37.7
2011-01-27 12:42:35 51°40.902 2°44.489 24.7 6.5 19 37.5
2011-01-27 12:43:35 51°41.009 2°44.542 23.3 6.4 14 35.2
2011-01-27 12:44:35 51°41.113 2°44.598 24.7 6.6 18 38.6
2011-01-27 12:45:35 51°41.22 2°44.653 24.8 7 18 37.7
2011-01-27 12:46:35 51°41.325 2°44.706 23.6 6.5 17 34.7
2011-01-27 12:47:35 51°41.431 2°44.763 23.8 6.6 17 37.7
2011-01-27 12:48:35 51°41.534 2°44.813 23.1 6.4 17 38.6
2011-01-27 12:49:35 51°41.637 2°44.866 24.3 6.7 19 36.1
2011-01-27 12:50:35 51°41.739 2°44.918 23.4 6.4 18 38.7
2011-01-27 12:51:35 51°41.838 2°44.97 24.6 6.6 19 30.3
2011-01-27 12:52:35 51°41.943 2°45.028 24.6 7 18 39
2011-01-27 12:53:35 51°42.052 2°45.087 24 6.4 18 37.9
2011-01-27 12:54:36 51°42.156 2°45.142 24.4 6 18 35.7
2011-01-27 12:55:35 51°42.254 2°45.198 24.6 6.8 19 37.8
2011-01-27 12:56:35 51°42.359 2°45.259 25.3 6.7 21 36.4
2011-01-27 12:57:35 51°42.463 2°45.322 25.5 6.9 22 37
2011-01-27 12:58:35 51°42.567 2°45.382 24.5 6.7 22 35.2
2011-01-27 12:59:35 51°42.669 2°45.439 23.1 6.4 20 38.6
2011-01-27 13:00:35 51°42.772 2°45.498 23.9 6.6 20 36.4
2011-01-27 13:01:35 51°42.876 2°45.553 23.4 6.6 19 36.6
2011-01-27 13:02:35 51°42.985 2°45.616 25 6.8 22 37.2
2011-01-27 13:03:35 51°43.088 2°45.643 359.3 6.8 343 37
2011-01-27 13:04:36 51°43.198 2°45.567 347.5 6.3 334 33
2011-01-27 13:05:35 51°43.293 2°45.487 344.8 7.1 333 34.1
2011-01-27 13:06:36 51°43.405 2°45.402 347.7 7.4 337 34
2011-01-27 13:07:35 51°43.512 2°45.324 347 7.1 336 36.7
2011-01-27 13:08:35 51°43.624 2°45.242 345.8 7.3 334 34.5
2011-01-27 13:09:35 51°43.731 2°45.145 341 7.5 327 34.9
2011-01-27 13:10:35 51°43.834 2°45.023 333.8 8 317 38.4
2011-01-27 13:11:35 51°43.93 2°44.888 331.8 7.7 321 30.6
2011-01-27 13:12:35 51°43.998 2°44.708 292.9 8.5 284 33.2
2011-01-27 13:13:35 51°43.965 2°44.492 243.1 8.3 236 39.3
2011-01-27 13:14:35 51°43.882 2°44.314 233.8 8.3 235 34.9
2011-01-27 13:15:35 51°43.794 2°44.146 221.9 8 218 34.3
2011-01-27 13:16:35 51°43.679 2°44.059 191.2 7.8 199 36.9
2011-01-27 13:17:35 51°43.557 2°43.982 196.3 7.8 204 39.6
2011-01-27 13:18:35 51°43.441 2°43.905 194.2 7.5 200 37.7
2011-01-27 13:19:35 51°43.322 2°43.832 194.6 7.8 203 37.9
2011-01-27 13:20:35 51°43.204 2°43.756 192.6 7.6 200 37
2011-01-27 13:21:35 51°43.086 2°43.685 194.7 7.5 201 36.8
2011-01-27 13:22:35 51°42.968 2°43.616 192.1 7.5 200 38.1
2011-01-27 13:23:35 51°42.851 2°43.543 193.1 7.5 202 35.7
2011-01-27 13:24:35 51°42.733 2°43.482 185.1 7.2 196 34.1
2011-01-27 13:25:35 51°42.615 2°43.436 182.3 7.3 191 36.2
2011-01-27 13:26:35 51°42.495 2°43.39 183.5 7.4 193 35
2011-01-27 13:27:35 51°42.375 2°43.341 184.4 7.4 195 34.5
2011-01-27 13:28:35 51°42.256 2°43.292 185.4 7.5 194 33.3
2011-01-27 13:29:35 51°42.139 2°43.241 184.9 7.4 198 34.4
2011-01-27 13:30:35 51°42.022 2°43.187 185.5 7.4 196 34.8
2011-01-27 13:31:35 51°41.904 2°43.134 186.4 7.3 195 36.7
2011-01-27 13:32:35 51°41.786 2°43.081 185.9 7.3 196 35.1
2011-01-27 13:33:35 51°41.668 2°43.025 185.3 7.6 197 35.3
2011-01-27 13:34:35 51°41.549 2°42.972 184.3 7.3 194 32.4
2011-01-27 13:35:35 51°41.431 2°42.923 184 7.3 192 33.4
2011-01-27 13:36:35 51°41.312 2°42.868 185.3 7.6 197 33.7
2011-01-27 13:37:35 51°41.191 2°42.815 185.2 7.5 195 35
2011-01-27 13:38:35 51°41.071 2°42.766 183.7 7.5 192 32.1
2011-01-27 13:39:35 51°40.95 2°42.715 183.8 7.5 195 28.6
2011-01-27 13:40:35 51°40.831 2°42.66 186.6 7.5 194 31.3
2011-01-27 13:41:35 51°40.714 2°42.603 186.9 7.5 198 31.8
2011-01-27 13:42:35 51°40.597 2°42.543 188.8 7.4 197 33.3
2011-01-27 13:43:35 51°40.48 2°42.479 190.4 7.6 200 28
2011-01-27 13:44:35 51°40.362 2°42.412 188.8 7.5 201 31.3
2011-01-27 13:45:35 51°40.244 2°42.351 188.7 7.5 197 28.7
2011-01-27 13:46:35 51°40.125 2°42.286 188.8 7.4 197 30.4
2011-01-27 13:47:35 51°40.008 2°42.224 187.7 7.3 197 30.1
2011-01-27 13:48:35 51°39.89 2°42.164 186.1 7.5 196 29.1
2011-01-27 13:49:35 51°39.773 2°42.102 188.8 7.5 198 27.8
2011-01-27 13:50:35 51°39.655 2°42.036 190 7.6 199 27.6
2011-01-27 13:51:35 51°39.536 2°41.974 189.5 7.7 197 26.2
2011-01-27 13:52:35 51°39.417 2°41.909 188.1 7.4 197 25.2
2011-01-27 13:53:35 51°39.3 2°41.84 188.5 7.8 201 26.1
2011-01-27 13:54:35 51°39.184 2°41.778 188.4 7.3 197 22.3
2011-01-27 13:55:35 51°39.066 2°41.717 186.6 7.6 201 23.3
2011-01-27 13:56:35 51°38.947 2°41.655 188.1 7.7 201 20.9
2011-01-27 13:57:35 51°38.827 2°41.587 188.1 7.7 200 17.9
2011-01-27 13:58:35 51°38.708 2°41.511 189 7.6 203 12.6
2011-01-27 13:59:35 51°38.589 2°41.435 185.1 7.5 197 20.7
2011-01-27 14:00:35 51°38.454 2°41.365 189 9.1 197 21.4
2011-01-27 14:01:35 51°38.308 2°41.285 190.4 9.2 199 21.6
2011-01-27 14:02:35 51°38.168 2°41.212 188.7 8.7 197 25.2
2011-01-27 14:03:35 51°38.032 2°41.157 180.8 8.2 191 24.2
2011-01-27 14:04:35 51°37.896 2°41.12 176.9 8.5 193 21.4
2011-01-27 14:05:35 51°37.761 2°41.083 178.6 8.3 196 20.8
2011-01-27 14:06:35 51°37.627 2°41.043 176.5 8.1 187 18.9
2011-01-27 14:07:35 51°37.493 2°41.016 172.8 8.1 184 18.9
2011-01-27 14:08:35 51°37.357 2°40.986 174.7 8 185 21.3
2011-01-27 14:09:35 51°37.223 2°40.96 173.2 8.2 188 22.2
2011-01-27 14:10:35 51°37.089 2°40.909 188.8 8.4 197 21.4
2011-01-27 14:11:35 51°36.958 2°40.821 193.9 8.3 200 20.8
2011-01-27 14:12:35 51°36.828 2°40.732 196.1 8.6 202 20.6
2011-01-27 14:13:35 51°36.698 2°40.645 192.4 8.5 206 22.2
2011-01-27 14:14:35 51°36.569 2°40.558 194 8.5 203 21.4
2011-01-27 14:15:35 51°36.439 2°40.473 191.7 8.4 200 22.4
2011-01-27 14:16:35 51°36.309 2°40.391 191.9 8.5 206 24.1
2011-01-27 14:17:35 51°36.182 2°40.311 193.4 8.3 200 25
2011-01-27 14:18:35 51°36.053 2°40.234 191.9 8.3 203 24.9
2011-01-27 14:19:35 51°35.926 2°40.153 193.9 8.1 200 25
2011-01-27 14:20:35 51°35.799 2°40.08 191 7.9 201 27.1
2011-01-27 14:21:35 51°35.682 2°40.002 194.5 7.4 205 27.8
2011-01-27 14:22:35 51°35.571 2°39.935 188.5 6.5 199 27.5
2011-01-27 14:23:35 51°35.479 2°39.882 186.8 5.3 200 28.7
2011-01-27 14:24:35 51°35.401 2°39.833 184.9 4.8 198 29.1
2011-01-27 14:25:35 51°35.33 2°39.789 185.1 4.5 201 31.5
2011-01-27 14:26:35 51°35.26 2°39.747 186.3 4.6 204 26
2011-01-27 14:27:35 51°35.177 2°39.7 177.7 6.3 192 27.5
2011-01-27 14:28:35 51°35.049 2°39.714 157.2 9.7 170 27.1
2011-01-27 14:29:35 51°34.876 2°39.784 156.1 11.4 169 25.9
2011-01-27 14:30:35 51°34.675 2°39.866 154 12.7 163 23.2
2011-01-27 14:31:35 51°34.46 2°39.942 156.8 13.2 166 18.8
2011-01-27 14:32:35 51°34.242 2°40.026 156.6 13.6 170 15.5
2011-01-27 14:33:35 51°34.021 2°40.1 158.4 13.8 170 28.9
2011-01-27 14:34:35 51°33.8 2°40.172 157.7 13.4 165 34.5
2011-01-27 14:35:35 51°33.58 2°40.24 159.1 13.8 174 38.9
2011-01-27 14:36:35 51°33.359 2°40.302 161.2 14.3 175 42.5
2011-01-27 14:37:35 51°33.141 2°40.368 158.6 13.7 170 39.7
2011-01-27 14:38:35 51°32.92 2°40.437 156.3 13.1 168 38.1
2011-01-27 14:39:35 51°32.697 2°40.505 158.1 13.8 170 39
2011-01-27 14:40:35 51°32.476 2°40.579 157.7 13.8 167 35.6
2011-01-27 14:41:35 51°32.255 2°40.653 159 13.3 171 38.5
2011-01-27 14:42:35 51°32.037 2°40.737 155.8 13.4 164 37.9
2011-01-27 14:43:35 51°31.824 2°40.84 150.2 13.5 153 37.6
2011-01-27 14:44:35 51°31.61 2°40.937 152.2 13.4 163 30.9
2011-01-27 14:45:35 51°31.397 2°41.029 154 13.2 170 36.7
2011-01-27 14:46:35 51°31.189 2°41.123 152.3 13 166 35.5
2011-01-27 14:47:35 51°30.985 2°41.223 148.5 12.4 156 30.8
2011-01-27 14:48:35 51°30.788 2°41.345 146.2 12.5 159 34.9
2011-01-27 14:49:35 51°30.588 2°41.458 146.3 12.3 159 35.7
2011-01-27 14:50:35 51°30.39 2°41.573 144.9 12.7 155 33.9
2011-01-27 14:51:35 51°30.192 2°41.684 146.9 12.4 158 33.9
2011-01-27 14:52:35 51°29.991 2°41.799 148.3 12.8 163 32.8
2011-01-27 14:53:35 51°29.791 2°41.908 149.7 13.1 167 33.2
2011-01-27 14:54:35 51°29.59 2°42.027 147.2 12.8 155 34.1
2011-01-27 14:55:35 51°29.392 2°42.147 148.8 12.8 159 32.6
2011-01-27 14:56:35 51°29.19 2°42.258 148.3 12.7 162 35.2
2011-01-27 14:57:35 51°28.999 2°42.397 143.1 12.6 153 33.5
2011-01-27 14:58:35 51°28.805 2°42.542 142.4 12.9 153 31.4
2011-01-27 14:59:35 51°28.612 2°42.685 142.8 12.9 158 29.9
2011-01-27 15:00:35 51°28.419 2°42.834 141.3 12.3 152 30.5
2011-01-27 15:01:35 51°28.225 2°42.979 143.1 12.8 152 31.5
2011-01-27 15:02:35 51°28.031 2°43.122 142.5 13 156 32.9
2011-01-27 15:03:35 51°27.838 2°43.265 142.1 12.4 155 33.1
2011-01-27 15:04:35 51°27.645 2°43.394 144.6 12.4 156 31.5
2011-01-27 15:05:35 51°27.456 2°43.532 140.7 12.5 158 30.9
2011-01-27 15:06:35 51°27.267 2°43.67 143 12.6 155 27.9
2011-01-27 15:07:35 51°27.075 2°43.801 142 12.4 156 27.6
2011-01-27 15:08:35 51°26.883 2°43.936 142.7 12.8 154 25
2011-01-27 15:09:35 51°26.689 2°44.068 145 12.6 153 26.7
2011-01-27 15:10:35 51°26.497 2°44.198 143.7 12.7 156 27.8
2011-01-27 15:11:35 51°26.305 2°44.336 142.5 12.6 156 26.9
2011-01-27 15:12:35 51°26.114 2°44.472 143.5 12.8 154 26.3
2011-01-27 15:13:35 51°25.92 2°44.606 143.1 12.4 155 27.1
2011-01-27 15:14:35 51°25.726 2°44.751 142.3 12.9 153 25.4
2011-01-27 15:15:35 51°25.532 2°44.893 144.1 12.7 160 26
2011-01-27 15:16:35 51°25.338 2°45.033 144.6 12.7 155 26
2011-01-27 15:17:35 51°25.146 2°45.173 143.1 12.8 157 26.6
2011-01-27 15:18:35 51°24.956 2°45.315 145.2 12.5 161 27.5
2011-01-27 15:19:35 51°24.775 2°45.467 139 12.1 147 26.6
2011-01-27 15:20:35 51°24.595 2°45.621 139.6 11.9 152 26
2011-01-27 15:21:35 51°24.413 2°45.774 140.7 12.4 151 26.8
2011-01-27 15:22:35 51°24.234 2°45.932 138.7 12.2 153 28
2011-01-27 15:23:35 51°24.054 2°46.089 138.8 12 154 30.4
2011-01-27 15:24:35 51°23.873 2°46.243 138.3 12.2 154 28.7
2011-01-27 15:25:35 51°23.696 2°46.403 139.3 12.4 148 29.4
2011-01-27 15:26:35 51°23.516 2°46.555 139.9 12.6 155 27.1
2011-01-27 15:27:35 51°23.335 2°46.712 141.7 12.9 154 22.2
2011-01-27 15:28:35 51°23.149 2°46.858 146 12.8 161 24.3
2011-01-27 15:29:35 51°22.938 2°46.919 168.2 13.1 180 20.5
2011-01-27 15:30:35 51°22.721 2°46.956 161.5 12.8 175 17.7
2011-01-27 15:31:35 51°22.504 2°47.016 156.2 12.5 162 18.9
2011-01-27 15:32:35 51°22.293 2°47.102 157.3 13.5 165 19.5
2011-01-27 15:33:35 51°22.093 2°47.226 141 12.5 154 24.3
2011-01-27 15:34:35 51°21.914 2°47.405 141.5 12.9 147 25.3
2011-01-27 15:35:35 51°21.737 2°47.587 138.9 12.8 150 26
2011-01-27 15:36:35 51°21.557 2°47.755 140.1 12.1 148 23.8
2011-01-27 15:37:35 51°21.381 2°47.92 139.2 12.4 145 23.1
2011-01-27 15:38:35 51°21.205 2°48.078 140.9 12.2 151 22.6
2011-01-27 15:39:35 51°21.028 2°48.237 141.6 12.6 152 21.2
2011-01-27 15:40:35 51°20.854 2°48.405 139.3 12.2 147 21.1
2011-01-27 15:41:35 51°20.678 2°48.568 138.7 12.3 150 22.5
2011-01-27 15:42:35 51°20.505 2°48.74 139 12.2 146 23.4
2011-01-27 15:43:35 51°20.327 2°48.912 138.4 12.5 146 23.6
2011-01-27 15:44:35 51°20.147 2°49.082 137.1 12.5 153 23.2
2011-01-27 15:45:35 51°19.972 2°49.259 137.4 12.2 147 20.5
2011-01-27 15:46:35 51°19.794 2°49.433 139.1 13.1 152 18.7
2011-01-27 15:47:35 51°19.619 2°49.613 140.2 13 149 16.1
2011-01-27 15:48:35 51°19.439 2°49.797 139.4 12.6 149 14.1
2011-01-27 15:49:35 51°19.26 2°49.988 138.1 12.7 144 11.7
2011-01-27 15:50:35 51°19.083 2°50.181 138.4 12.6 147 13.2
2011-01-27 15:51:35 51°18.9 2°50.371 139.4 12.9 145 15.1
2011-01-27 15:52:35 51°18.719 2°50.565 139.9 13.1 147 16.1
2011-01-27 15:53:35 51°18.537 2°50.765 139.4 13.4 142 15.2
2011-01-27 15:54:35 51°18.355 2°50.962 138 13 149 14.4
2011-01-27 15:55:35 51°18.176 2°51.164 138.2 12.8 143 13.5
2011-01-27 15:56:35 51°17.998 2°51.369 135.6 13.7 137 12.2
2011-01-27 15:57:35 51°17.824 2°51.579 138.2 13 146 11.2
2011-01-27 15:58:35 51°17.651 2°51.785 136.5 13 148 11.2
2011-01-27 15:59:35 51°17.475 2°51.988 143.5 12.3 152 -999
2011-01-27 16:00:35 51°17.277 2°52.139 150.1 13.4 154 12.3
2011-01-27 16:01:35 51°17.082 2°52.293 146.7 12.7 157 11.5
2011-01-27 16:02:35 51°16.887 2°52.458 148.2 13.2 150 10.7
2011-01-27 16:03:35 51°16.692 2°52.612 147.7 12.7 150 11.5
2011-01-27 16:04:35 51°16.498 2°52.773 148.9 13.8 150 13
2011-01-27 16:05:35 51°16.306 2°52.933 149.7 13.2 153 13.1
2011-01-27 16:06:35 51°16.121 2°53.112 146.1 13 151 13
2011-01-27 16:07:35 51°15.937 2°53.291 146 12.5 146 12.9
2011-01-27 16:08:35 51°15.761 2°53.477 143.4 12.9 149 12.8
2011-01-27 16:09:35 51°15.596 2°53.667 136.1 11.4 141 12.3
2011-01-27 16:10:35 51°15.447 2°53.861 134.4 11.5 140 12.7
2011-01-27 16:11:35 51°15.299 2°54.051 134.3 11.3 141 12.4
2011-01-27 16:12:35 51°15.153 2°54.234 140.1 10.9 146 12.2
2011-01-27 16:13:35 51°15.007 2°54.399 139.6 10.9 146 11.8
2011-01-27 16:14:36 51°14.869 2°54.581 139.2 10.4 144 -999
2011-01-27 16:15:38 51°14.727 2°54.763 141.7 10.7 138 12.6
2011-01-27 16:16:37 51°14.589 2°54.934 139.7 10.3 147 4.9
2011-01-27 16:17:37 51°14.445 2°55.098 141.8 10.7 148 -999
2011-01-27 16:18:39 51°14.297 2°55.257 142.4 10.1 146 -999
2011-01-27 16:19:39 51°14.166 2°55.377 151.7 8.5 155 -999
2011-01-27 16:20:39 51°14.047 2°55.466 153.9 6.8 156 -999
2011-01-27 16:21:39 51°13.942 2°55.539 153.8 7 156 11.8
2011-01-27 16:22:38 51°13.842 2°55.615 152 6.2 153 11
2011-01-27 16:23:38 51°13.764 2°55.701 134 5.2 135 12
2011-01-27 16:24:37 51°13.712 2°55.797 126.2 4.4 129 12.2
2011-01-27 16:25:36 51°13.679 2°55.887 110.4 3.7 111 9
2011-01-27 16:26:35 51°13.665 2°55.953 121.1 1.2 126 8.1